createdAt,value
2022-10-16T00:01:45.941Z,17.21
2022-10-16T00:04:14.085Z,17.31
2022-10-16T00:06:41.943Z,17.26
2022-10-16T00:09:10.544Z,17.11
2022-10-16T00:11:43.641Z,17.01
2022-10-16T00:14:14.443Z,16.89
2022-10-16T00:16:45.650Z,16.67
2022-10-16T00:19:13.724Z,16.56
2022-10-16T00:21:41.411Z,16.56
2022-10-16T00:24:11.061Z,16.85
2022-10-16T00:26:40.405Z,16.92
2022-10-16T00:29:08.653Z,17.13
2022-10-16T00:31:37.162Z,17.23
2022-10-16T00:34:06.446Z,17.08
2022-10-16T00:36:34.152Z,17.18
2022-10-16T00:39:02.829Z,17.16
2022-10-16T00:41:31.769Z,17.21
2022-10-16T00:44:00.914Z,17.13
2022-10-16T00:46:32.009Z,17.04
2022-10-16T00:49:03.625Z,17.05
2022-10-16T00:51:36.615Z,17.02
2022-10-16T00:54:08.186Z,17.00
2022-10-16T00:56:36.142Z,16.95
2022-10-16T00:59:08.573Z,17.03
2022-10-16T01:01:36.542Z,16.99
2022-10-16T01:04:04.403Z,16.96
2022-10-16T01:06:40.415Z,16.93
2022-10-16T01:09:18.584Z,16.88
2022-10-16T01:12:00.677Z,16.77
2022-10-16T01:14:36.272Z,16.65
2022-10-16T01:17:12.083Z,16.67
2022-10-16T01:19:52.492Z,16.65
2022-10-16T01:22:25.688Z,16.58
2022-10-16T01:24:57.331Z,16.54
2022-10-16T01:27:29.483Z,16.54
2022-10-16T01:30:04.783Z,16.55
2022-10-16T01:32:38.627Z,16.56
2022-10-16T01:35:12.518Z,16.51
2022-10-16T01:37:43.721Z,16.51
2022-10-16T01:40:14.635Z,16.49
2022-10-16T01:42:49.300Z,16.52
2022-10-16T01:45:20.850Z,16.58
2022-10-16T01:47:50.396Z,16.53
2022-10-16T01:50:20.976Z,16.53
2022-10-16T01:52:53.439Z,16.59
2022-10-16T01:55:34.062Z,16.52
2022-10-16T01:58:05.725Z,16.46
2022-10-16T02:00:33.509Z,16.58
2022-10-16T02:03:05.632Z,16.69
2022-10-16T02:05:36.271Z,16.68
2022-10-16T02:08:05.633Z,16.67
2022-10-16T02:10:34.139Z,16.59
2022-10-16T02:13:08.070Z,16.61
2022-10-16T02:15:35.750Z,16.62
2022-10-16T02:18:04.401Z,16.66
2022-10-16T02:20:36.545Z,16.60
2022-10-16T02:23:05.508Z,16.51
2022-10-16T02:25:36.863Z,16.64
2022-10-16T02:28:10.589Z,16.67
2022-10-16T02:30:42.935Z,16.65
2022-10-16T02:33:14.566Z,16.70
2022-10-16T02:35:44.165Z,16.65
2022-10-16T02:38:13.505Z,16.65
2022-10-16T02:40:41.329Z,16.62
2022-10-16T02:43:11.619Z,16.41
2022-10-16T02:45:39.389Z,16.42
2022-10-16T02:48:07.528Z,16.29
2022-10-16T02:50:35.214Z,16.28
2022-10-16T02:53:02.913Z,16.47
2022-10-16T02:55:30.514Z,16.45
2022-10-16T02:57:58.190Z,16.46
2022-10-16T03:00:27.374Z,16.44
2022-10-16T03:02:55.164Z,16.59
2022-10-16T03:07:55.386Z,16.55
2022-10-16T03:10:23.173Z,16.39
2022-10-16T03:12:50.785Z,16.37
2022-10-16T03:15:18.438Z,16.30
2022-10-16T03:17:47.432Z,16.36
2022-10-16T03:20:15.333Z,16.27
2022-10-16T03:22:42.960Z,16.30
2022-10-16T03:25:10.638Z,16.43
2022-10-16T03:27:38.280Z,16.65
2022-10-16T03:30:06.609Z,16.59
2022-10-16T03:35:09.886Z,16.27
2022-10-16T03:37:37.761Z,16.21
2022-10-16T03:40:06.116Z,16.23
2022-10-16T03:42:34.099Z,16.35
2022-10-16T03:45:01.673Z,16.30
2022-10-16T03:47:29.382Z,16.54
2022-10-16T03:49:57.207Z,16.43
2022-10-16T03:52:26.286Z,16.30
2022-10-16T03:54:53.982Z,16.05
2022-10-16T03:57:21.610Z,15.95
2022-10-16T03:59:49.265Z,16.01
2022-10-16T04:02:16.843Z,16.06
2022-10-16T04:04:44.469Z,16.10
2022-10-16T04:07:12.031Z,16.12
2022-10-16T04:09:40.998Z,16.17
2022-10-16T04:12:08.985Z,16.20
2022-10-16T04:14:36.633Z,16.11
2022-10-16T04:17:04.179Z,16.00
2022-10-16T04:19:31.761Z,16.00
2022-10-16T04:21:59.370Z,16.09
2022-10-16T04:24:26.942Z,16.09
2022-10-16T04:26:55.946Z,16.26
2022-10-16T04:29:23.539Z,16.40
2022-10-16T04:31:51.142Z,16.36
2022-10-16T04:34:18.738Z,16.32
2022-10-16T04:36:48.636Z,16.47
2022-10-16T04:39:16.250Z,16.58
2022-10-16T04:41:44.069Z,16.57
2022-10-16T04:44:13.026Z,16.55
2022-10-16T04:46:40.605Z,16.52
2022-10-16T04:49:08.563Z,16.42
2022-10-16T04:51:36.156Z,16.28
2022-10-16T04:54:03.812Z,16.39
2022-10-16T04:56:31.868Z,16.34
2022-10-16T04:58:59.494Z,16.45
2022-10-16T05:01:28.448Z,16.51
2022-10-16T05:03:55.982Z,16.56
2022-10-16T05:06:23.627Z,16.55
2022-10-16T05:08:51.225Z,16.51
2022-10-16T05:11:18.970Z,16.46
2022-10-16T05:13:46.866Z,16.38
2022-10-16T05:16:14.489Z,16.37
2022-10-16T05:18:43.522Z,16.32
2022-10-16T05:21:11.166Z,16.19
2022-10-16T05:23:38.873Z,16.23
2022-10-16T05:26:06.645Z,16.16
2022-10-16T05:28:34.343Z,16.15
2022-10-16T05:31:06.445Z,16.41
2022-10-16T05:33:34.134Z,16.42
2022-10-16T05:36:04.981Z,16.26
2022-10-16T05:38:32.582Z,16.10
2022-10-16T05:41:00.277Z,16.06
2022-10-16T05:43:31.072Z,15.95
2022-10-16T05:45:59.957Z,15.96
2022-10-16T05:48:28.125Z,15.96
2022-10-16T05:51:00.756Z,15.89
2022-10-16T05:53:31.999Z,15.90
2022-10-16T05:56:00.300Z,15.85
2022-10-16T05:58:32.718Z,15.82
2022-10-16T06:01:02.521Z,15.95
2022-10-16T06:03:30.175Z,16.14
2022-10-16T06:05:57.835Z,16.06
2022-10-16T06:08:25.678Z,16.03
2022-10-16T06:11:04.646Z,16.28
2022-10-16T06:13:32.240Z,16.55
2022-10-16T06:16:01.429Z,16.45
2022-10-16T06:18:30.067Z,16.41
2022-10-16T06:20:58.549Z,16.24
2022-10-16T06:23:26.950Z,16.22
2022-10-16T06:25:58.924Z,16.08
2022-10-16T06:28:30.841Z,16.15
2022-10-16T06:31:08.739Z,16.12
2022-10-16T06:33:41.048Z,16.19
2022-10-16T06:36:12.660Z,16.05
2022-10-16T06:38:40.780Z,15.95
2022-10-16T06:41:11.322Z,15.87
2022-10-16T06:43:42.322Z,15.81
2022-10-16T06:46:12.794Z,15.83
2022-10-16T06:48:42.480Z,15.94
2022-10-16T06:51:14.629Z,16.01
2022-10-16T06:54:01.458Z,16.06
2022-10-16T06:56:30.995Z,16.13
2022-10-16T06:59:00.505Z,16.11
2022-10-16T07:01:28.943Z,16.08
2022-10-16T07:03:56.613Z,16.00
2022-10-16T07:06:26.425Z,15.94
2022-10-16T07:08:54.208Z,16.15
2022-10-16T07:11:23.673Z,16.48
2022-10-16T07:13:54.811Z,16.71
2022-10-16T07:16:27.633Z,16.72
2022-10-16T07:18:59.746Z,16.70
2022-10-16T07:21:29.830Z,16.61
2022-10-16T07:23:59.223Z,16.46
2022-10-16T07:26:27.924Z,16.59
2022-10-16T07:28:55.799Z,16.60
2022-10-16T07:31:25.066Z,16.59
2022-10-16T07:33:53.407Z,16.46
2022-10-16T07:36:23.187Z,16.50
2022-10-16T07:38:52.896Z,16.82
2022-10-16T07:41:23.238Z,16.87
2022-10-16T07:43:52.627Z,16.81
2022-10-16T07:46:20.923Z,16.83
2022-10-16T07:48:50.194Z,16.81
2022-10-16T07:51:19.284Z,16.89
2022-10-16T07:53:47.739Z,16.95
2022-10-16T07:56:15.825Z,17.01
2022-10-16T07:58:43.403Z,17.04
2022-10-16T08:01:13.019Z,17.00
2022-10-16T08:03:41.104Z,17.16
2022-10-16T08:06:10.125Z,17.29
2022-10-16T08:08:39.699Z,17.35
2022-10-16T08:11:07.462Z,17.37
2022-10-16T08:13:39.414Z,17.48
2022-10-16T08:16:09.128Z,17.56
2022-10-16T08:18:37.573Z,17.62
2022-10-16T08:21:06.428Z,17.68
2022-10-16T08:23:36.279Z,17.74
2022-10-16T08:26:12.420Z,17.78
2022-10-16T08:28:40.160Z,17.86
2022-10-16T08:31:27.582Z,17.91
2022-10-16T08:37:03.057Z,18.28
2022-10-16T08:39:32.073Z,18.35
2022-10-16T08:42:16.624Z,18.47
2022-10-16T08:45:16.584Z,18.62
2022-10-16T08:47:51.552Z,18.66
2022-10-16T08:50:26.056Z,18.64
2022-10-16T08:52:54.042Z,18.71
2022-10-16T08:55:34.325Z,18.77
2022-10-16T08:58:02.407Z,18.78
2022-10-16T09:00:31.372Z,18.84
2022-10-16T09:03:13.022Z,18.91
2022-10-16T09:05:53.572Z,18.95
2022-10-16T09:08:28.140Z,19.03
2022-10-16T09:11:02.028Z,19.03
2022-10-16T09:13:37.682Z,19.08
2022-10-16T09:16:18.710Z,19.13
2022-10-16T09:18:53.975Z,19.20
2022-10-16T09:21:26.663Z,19.20
2022-10-16T09:23:59.125Z,19.31
2022-10-16T09:26:28.145Z,19.27
2022-10-16T09:28:55.883Z,19.40
2022-10-16T09:31:24.797Z,19.36
2022-10-16T09:33:56.949Z,19.48
2022-10-16T09:36:30.702Z,19.63
2022-10-16T09:39:07.182Z,19.66
2022-10-16T09:41:39.818Z,19.73
2022-10-16T09:44:21.389Z,19.65
2022-10-16T09:46:49.050Z,19.65
2022-10-16T09:49:25.295Z,19.77
2022-10-16T09:52:04.595Z,19.88
2022-10-16T09:54:32.257Z,19.96
2022-10-16T09:57:09.398Z,20.02
2022-10-16T09:59:48.359Z,19.98
2022-10-16T10:02:17.956Z,20.12
2022-10-16T10:04:52.342Z,20.16
2022-10-16T10:07:25.733Z,20.21
2022-10-16T10:10:00.335Z,20.24
2022-10-16T10:12:36.728Z,20.22
2022-10-16T10:15:08.484Z,20.16
2022-10-16T10:17:36.186Z,20.22
2022-10-16T10:20:23.640Z,20.11
2022-10-16T10:22:51.288Z,20.27
2022-10-16T10:25:34.938Z,20.19
2022-10-16T10:28:18.712Z,20.58
2022-10-16T10:30:55.723Z,20.57
2022-10-16T10:33:33.135Z,20.41
2022-10-16T10:36:11.702Z,20.53
2022-10-16T10:38:49.268Z,20.43
2022-10-16T10:41:55.574Z,20.39
2022-10-16T10:44:39.461Z,20.54
2022-10-16T10:47:20.671Z,20.80
2022-10-16T10:49:59.787Z,20.80
2022-10-16T10:52:43.730Z,20.69
2022-10-16T10:55:21.403Z,20.81
2022-10-16T10:58:02.842Z,20.55
2022-10-16T11:00:42.461Z,21.04
2022-10-16T11:03:20.402Z,20.93
2022-10-16T11:05:52.080Z,20.79
2022-10-16T11:08:22.946Z,20.86
2022-10-16T11:10:57.735Z,20.77
2022-10-16T11:13:40.227Z,21.18
2022-10-16T11:16:20.617Z,21.30
2022-10-16T11:18:54.091Z,21.39
2022-10-16T11:21:28.813Z,21.18
2022-10-16T11:24:04.328Z,21.45
2022-10-16T11:26:36.693Z,21.48
2022-10-16T11:29:10.821Z,21.20
2022-10-16T11:31:43.465Z,21.18
2022-10-16T11:34:19.703Z,21.37
2022-10-16T11:36:52.081Z,21.49
2022-10-16T11:39:23.239Z,21.54
2022-10-16T11:41:53.603Z,21.50
2022-10-16T11:44:48.542Z,21.51
2022-10-16T11:47:54.127Z,21.50
2022-10-16T11:50:22.563Z,21.76
2022-10-16T11:52:57.588Z,21.89
2022-10-16T11:55:32.428Z,22.00
2022-10-16T11:58:04.527Z,22.11
2022-10-16T12:00:39.675Z,22.09
2022-10-16T12:03:17.614Z,22.07
2022-10-16T12:06:00.782Z,21.90
2022-10-16T12:08:29.400Z,21.93
2022-10-16T12:11:09.884Z,21.99
2022-10-16T12:13:39.800Z,21.91
2022-10-16T12:16:24.340Z,21.88
2022-10-16T12:19:12.683Z,21.93
2022-10-16T12:21:40.416Z,22.12
2022-10-16T12:24:08.422Z,22.07
2022-10-16T12:26:40.446Z,22.09
2022-10-16T12:29:16.463Z,22.07
2022-10-16T12:31:57.448Z,22.03
2022-10-16T12:34:30.162Z,22.10
2022-10-16T12:37:09.460Z,22.20
2022-10-16T12:39:39.007Z,22.31
2022-10-16T12:42:21.047Z,22.24
2022-10-16T12:44:48.864Z,22.08
2022-10-16T12:47:23.276Z,22.03
2022-10-16T12:53:39.789Z,21.97
2022-10-16T12:56:27.122Z,22.14
2022-10-16T12:59:06.989Z,21.79
2022-10-16T13:01:43.775Z,21.59
2022-10-16T13:04:38.806Z,22.02
2022-10-16T13:07:21.493Z,22.11
2022-10-16T13:10:03.669Z,22.07
2022-10-16T13:12:56.632Z,22.24
2022-10-16T13:15:41.961Z,21.98
2022-10-16T13:18:17.733Z,22.10
2022-10-16T13:21:11.022Z,21.79
2022-10-16T13:23:50.108Z,21.77
2022-10-16T13:26:30.938Z,21.73
2022-10-16T13:29:01.460Z,21.99
2022-10-16T13:31:32.194Z,22.18
2022-10-16T13:34:01.788Z,22.37
2022-10-16T13:36:31.157Z,22.26
2022-10-16T13:39:15.183Z,22.38
2022-10-16T13:41:44.168Z,22.37
2022-10-16T13:44:17.505Z,22.62
2022-10-16T13:46:45.085Z,23.15
2022-10-16T13:49:17.579Z,23.44
2022-10-16T13:51:56.392Z,23.78
2022-10-16T13:54:24.941Z,24.15
2022-10-16T13:57:03.120Z,24.38
2022-10-16T13:59:36.103Z,24.37
2022-10-16T14:02:17.331Z,24.32
2022-10-16T14:04:45.109Z,24.30
2022-10-16T14:07:21.282Z,24.28
2022-10-16T14:09:52.009Z,24.30
2022-10-16T14:12:24.057Z,24.30
2022-10-16T14:14:56.544Z,24.25
2022-10-16T14:17:27.510Z,24.20
2022-10-16T14:19:59.674Z,24.15
2022-10-16T14:22:34.892Z,24.15
2022-10-16T14:25:02.951Z,24.12
2022-10-16T14:27:33.890Z,24.07
2022-10-16T14:30:15.971Z,24.20
2022-10-16T14:32:54.442Z,24.06
2022-10-16T14:35:31.816Z,23.96
2022-10-16T14:38:00.859Z,23.86
2022-10-16T14:40:31.071Z,23.78
2022-10-16T14:43:00.955Z,23.71
2022-10-16T14:45:31.525Z,23.62
2022-10-16T14:48:01.009Z,23.50
2022-10-16T14:50:28.695Z,23.37
2022-10-16T14:52:56.647Z,23.24
2022-10-16T14:57:59.857Z,23.09
2022-10-16T15:00:29.863Z,22.97
2022-10-16T15:02:57.488Z,22.84
2022-10-16T15:05:27.773Z,22.75
2022-10-16T15:07:56.984Z,22.63
2022-10-16T15:10:26.327Z,22.55
2022-10-16T15:12:54.426Z,22.48
2022-10-16T15:15:35.087Z,22.42
2022-10-16T15:18:03.598Z,22.35
2022-10-16T15:20:34.645Z,22.30
2022-10-16T15:23:03.469Z,22.24
2022-10-16T15:25:38.571Z,22.20
2022-10-16T15:28:06.453Z,22.17
2022-10-16T15:30:36.039Z,22.12
2022-10-16T15:33:04.900Z,22.09
2022-10-16T15:35:32.560Z,22.04
2022-10-16T15:38:00.374Z,22.02
2022-10-16T15:40:28.042Z,21.97
2022-10-16T15:42:55.731Z,21.96
2022-10-16T15:45:23.432Z,21.92
2022-10-16T15:47:52.681Z,21.89
2022-10-16T15:50:20.274Z,21.85
2022-10-16T15:52:48.213Z,21.82
2022-10-16T15:55:16.692Z,21.78
2022-10-16T15:57:44.244Z,21.73
2022-10-16T16:00:14.428Z,21.68
2022-10-16T16:02:42.021Z,21.66
2022-10-16T16:05:12.396Z,21.64
2022-10-16T16:07:41.590Z,21.61
2022-10-16T16:10:11.896Z,21.58
2022-10-16T16:12:40.475Z,21.56
2022-10-16T16:15:10.000Z,21.53
2022-10-16T16:17:38.432Z,21.48
2022-10-16T16:20:07.166Z,21.46
2022-10-16T16:22:36.054Z,21.42
2022-10-16T16:25:03.650Z,21.38
2022-10-16T16:27:34.491Z,21.36
2022-10-16T16:30:04.373Z,21.32
2022-10-16T16:32:32.035Z,21.33
2022-10-16T16:34:59.672Z,21.30
2022-10-16T16:37:27.473Z,21.27
2022-10-16T16:39:59.262Z,21.24
2022-10-16T16:42:27.345Z,21.20
2022-10-16T16:44:55.517Z,21.17
2022-10-16T16:47:23.493Z,21.15
2022-10-16T16:49:51.862Z,21.12
2022-10-16T16:52:20.071Z,21.13
2022-10-16T16:54:52.697Z,21.08
2022-10-16T16:57:22.558Z,21.06
2022-10-16T16:59:52.688Z,21.03
2022-10-16T17:02:20.430Z,21.00
2022-10-16T17:04:48.090Z,20.97
2022-10-16T17:07:16.850Z,20.94
2022-10-16T17:09:46.387Z,20.92
2022-10-16T17:12:13.937Z,20.87
2022-10-16T17:14:42.873Z,20.89
2022-10-16T17:17:10.534Z,21.00
2022-10-16T17:19:38.087Z,21.09
2022-10-16T17:22:05.925Z,21.15
2022-10-16T17:24:33.497Z,21.16
2022-10-16T17:27:01.085Z,21.28
2022-10-16T17:29:28.652Z,21.23
2022-10-16T17:31:59.244Z,21.15
2022-10-16T17:34:27.277Z,21.11
2022-10-16T17:36:54.941Z,21.06
2022-10-16T17:39:23.222Z,20.97
2022-10-16T17:41:50.934Z,20.86
2022-10-16T17:44:22.437Z,20.75
2022-10-16T17:46:51.776Z,20.68
2022-10-16T17:49:21.320Z,20.65
2022-10-16T17:51:51.947Z,20.58
2022-10-16T17:54:19.588Z,20.60
2022-10-16T17:56:49.930Z,20.59
2022-10-16T17:59:17.590Z,20.55
2022-10-16T18:01:46.256Z,20.51
2022-10-16T18:04:17.401Z,20.50
2022-10-16T18:06:47.667Z,20.48
2022-10-16T18:09:18.066Z,20.41
2022-10-16T18:11:46.301Z,20.35
2022-10-16T18:14:16.140Z,20.29
2022-10-16T18:16:44.601Z,20.24
2022-10-16T18:19:13.536Z,20.22
2022-10-16T18:21:41.335Z,20.20
2022-10-16T18:24:10.494Z,20.17
2022-10-16T18:26:38.703Z,20.26
2022-10-16T18:29:06.643Z,20.34
2022-10-16T18:31:37.782Z,20.39
2022-10-16T18:34:08.257Z,20.39
2022-10-16T18:36:36.584Z,20.33
2022-10-16T18:39:09.244Z,20.28
2022-10-16T18:41:39.335Z,20.39
2022-10-16T18:44:07.892Z,20.34
2022-10-16T18:46:35.494Z,20.28
2022-10-16T18:49:04.677Z,20.25
2022-10-16T18:51:33.848Z,20.21
2022-10-16T18:54:03.831Z,20.10
2022-10-16T18:56:32.755Z,20.05
2022-10-16T18:59:04.575Z,20.10
2022-10-16T19:01:34.660Z,20.12
2022-10-16T19:04:04.248Z,20.21
2022-10-16T19:06:35.956Z,20.26
2022-10-16T19:09:04.693Z,20.25
2022-10-16T19:11:34.131Z,20.15
2022-10-16T19:14:05.573Z,20.05
2022-10-16T19:16:34.777Z,19.94
2022-10-16T19:19:05.357Z,19.86
2022-10-16T19:21:36.288Z,19.83
2022-10-16T19:24:04.734Z,19.86
2022-10-16T19:26:35.751Z,19.93
2022-10-16T19:29:08.109Z,19.92
2022-10-16T19:31:35.913Z,19.91
2022-10-16T19:34:06.364Z,19.92
2022-10-16T19:36:35.761Z,19.89
2022-10-16T19:39:05.510Z,19.95
2022-10-16T19:41:33.273Z,20.11
2022-10-16T19:44:02.930Z,20.09
2022-10-16T19:46:33.615Z,20.04
2022-10-16T19:49:03.342Z,20.05
2022-10-16T19:51:31.483Z,20.07
2022-10-16T19:54:00.953Z,20.05
2022-10-16T19:56:31.406Z,20.17
2022-10-16T19:59:00.466Z,20.06
2022-10-16T20:01:29.968Z,20.04
2022-10-16T20:03:59.676Z,20.02
2022-10-16T20:06:27.947Z,20.09
2022-10-16T20:08:58.058Z,20.03
2022-10-16T20:11:27.651Z,20.17
2022-10-16T20:13:55.289Z,20.22
2022-10-16T20:16:22.995Z,20.10
2022-10-16T20:18:52.251Z,19.96
2022-10-16T20:21:23.832Z,19.84
2022-10-16T20:23:51.947Z,19.85
2022-10-16T20:26:22.165Z,19.79
2022-10-16T20:28:49.809Z,19.71
2022-10-16T20:31:22.476Z,19.63
2022-10-16T20:33:50.248Z,19.61
2022-10-16T20:36:18.623Z,19.59
2022-10-16T20:38:47.964Z,19.64
2022-10-16T20:41:16.326Z,19.74
2022-10-16T20:43:45.935Z,19.70
2022-10-16T20:46:16.056Z,19.64
2022-10-16T20:48:46.432Z,19.58
2022-10-16T20:51:16.285Z,19.58
2022-10-16T20:53:45.918Z,19.64
2022-10-16T20:56:17.387Z,19.82
2022-10-16T20:58:45.386Z,19.76
2022-10-16T21:01:15.280Z,19.74
2022-10-16T21:03:43.878Z,19.62
2022-10-16T21:06:12.065Z,19.53
2022-10-16T21:08:41.659Z,19.37
2022-10-16T21:11:15.282Z,19.20
2022-10-16T21:13:43.132Z,19.03
2022-10-16T21:16:12.392Z,18.93
2022-10-16T21:18:44.175Z,18.84
2022-10-16T21:21:19.694Z,18.77
2022-10-16T21:23:47.532Z,18.73
2022-10-16T21:26:18.136Z,18.68
2022-10-16T21:28:46.149Z,18.64
2022-10-16T21:31:19.220Z,18.66
2022-10-16T21:33:47.160Z,18.66
2022-10-16T21:36:15.945Z,18.63
2022-10-16T21:38:43.942Z,18.58
2022-10-16T21:41:20.659Z,18.55
2022-10-16T21:43:48.606Z,18.52
2022-10-16T21:46:17.231Z,18.52
2022-10-16T21:48:44.871Z,18.45
2022-10-16T21:51:13.017Z,18.53
2022-10-16T21:53:41.320Z,18.61
2022-10-16T21:56:14.462Z,18.63
2022-10-16T21:58:44.212Z,18.60
2022-10-16T22:01:14.505Z,18.59
2022-10-16T22:03:42.471Z,18.65
2022-10-16T22:06:11.711Z,18.64
2022-10-16T22:08:40.230Z,18.62
2022-10-16T22:11:10.137Z,18.73
2022-10-16T22:13:38.530Z,18.72
2022-10-16T22:16:08.696Z,18.78
2022-10-16T22:18:37.687Z,18.78
2022-10-16T22:21:07.061Z,18.81
2022-10-16T22:23:36.010Z,18.90
2022-10-16T22:26:07.299Z,19.10
2022-10-16T22:28:35.067Z,19.20
2022-10-16T22:31:03.802Z,19.22
2022-10-16T22:36:08.411Z,18.95
2022-10-16T22:38:37.324Z,18.89
2022-10-16T22:41:06.596Z,18.97
2022-10-16T22:43:36.734Z,19.04
2022-10-16T22:46:04.997Z,18.96
2022-10-16T22:48:34.152Z,18.95
2022-10-16T22:51:02.103Z,18.87
2022-10-16T22:53:30.048Z,18.69
2022-10-16T22:55:57.689Z,18.62
2022-10-16T22:58:25.410Z,18.53
2022-10-16T23:00:53.169Z,18.48
2022-10-16T23:03:20.956Z,18.37
2022-10-16T23:05:50.057Z,18.30
2022-10-16T23:08:17.972Z,18.22
2022-10-16T23:10:48.278Z,18.24
2022-10-16T23:13:16.110Z,18.22
2022-10-16T23:15:45.136Z,18.26
2022-10-16T23:18:13.374Z,18.21
2022-10-16T23:20:41.536Z,18.12
2022-10-16T23:23:10.859Z,18.00
2022-10-16T23:25:38.833Z,17.86
2022-10-16T23:28:06.533Z,17.78
2022-10-16T23:30:34.149Z,17.75
2022-10-16T23:33:01.709Z,17.76
2022-10-16T23:35:29.354Z,17.76
2022-10-16T23:37:58.136Z,17.75
2022-10-16T23:40:27.203Z,17.63
2022-10-16T23:42:54.895Z,17.57
2022-10-16T23:45:22.605Z,17.48
2022-10-16T23:47:50.160Z,17.58
2022-10-16T23:50:17.907Z,17.55
2022-10-16T23:52:45.515Z,17.57
2022-10-16T23:55:13.135Z,17.48
2022-10-16T23:57:42.079Z,17.38
